Time;durP1;ratioP1;P1;durP2;ratioP2;P2;SDS_P1;SDS_P2;PMS_P1;PMS_P2;Temp;Humidity;BMP_temperature;BMP_pressure;BME280_temperature;BME280_humidity;BME280_pressure;Samples;Min_cycle;Max_cycle;Signal;HPM_P1;HPM_P2
2022/04/23 00:01:11;;;;;;;12.05;10.20;;;;;;;;;;5102596;28;20433;-69
2022/04/23 00:03:37;;;;;;;11.52;10.23;;;;;;;;;;5102784;28;20195;-69
2022/04/23 00:06:04;;;;;;;11.30;9.95;;;;;;;;;;5102404;28;20220;-69
2022/04/23 00:08:30;;;;;;;12.25;10.93;;;;;;;;;;5102557;28;20200;-69
2022/04/23 00:10:56;;;;;;;11.18;10.02;;;;;;;;;;5102396;28;20195;-69
2022/04/23 00:13:23;;;;;;;10.63;9.63;;;;;;;;;;5102652;28;20199;-69
2022/04/23 00:15:50;;;;;;;10.85;9.75;;;;;;;;;;5102331;28;20290;-69
2022/04/23 00:18:18;;;;;;;10.75;9.68;;;;;;;;;;5102352;28;20200;-69
2022/04/23 00:20:46;;;;;;;11.05;9.90;;;;;;;;;;5102477;28;20196;-69
2022/04/23 00:23:13;;;;;;;10.60;9.57;;;;;;;;;;5102392;28;20241;-69
2022/04/23 00:25:39;;;;;;;10.68;9.77;;;;;;;;;;5102255;28;20506;-69
2022/04/23 00:28:06;;;;;;;10.88;9.25;;;;;;;;;;5101982;28;20267;-69
2022/04/23 00:30:33;;;;;;;10.68;9.52;;;;;;;;;;5102463;28;20556;-69
2022/04/23 00:33:01;;;;;;;11.02;9.88;;;;;;;;;;5102293;28;20237;-69
2022/04/23 00:35:27;;;;;;;11.68;8.80;;;;;;;;;;5102221;28;20223;-69
2022/04/23 00:37:54;;;;;;;9.50;8.73;;;;;;;;;;5102084;28;20446;-69
2022/04/23 00:40:21;;;;;;;9.98;9.05;;;;;;;;;;5102038;28;20241;-69
2022/04/23 00:42:48;;;;;;;9.63;8.80;;;;;;;;;;5102372;28;20195;-69
2022/04/23 00:45:14;;;;;;;11.02;9.38;;;;;;;;;;5102241;28;20192;-68
2022/04/23 00:47:41;;;;;;;10.38;9.00;;;;;;;;;;5102066;28;20196;-68
2022/04/23 00:50:09;;;;;;;10.23;9.32;;;;;;;;;;5104694;28;20196;-68
2022/04/23 00:52:35;;;;;;;9.80;8.95;;;;;;;;;;5106109;28;20200;-69
2022/04/23 00:55:01;;;;;;;10.90;9.85;;;;;;;;;;5106174;28;20231;-69
2022/04/23 00:57:28;;;;;;;10.15;9.27;;;;;;;;;;5105984;28;20195;-69
2022/04/23 00:59:54;;;;;;;10.38;9.38;;;;;;;;;;5106193;28;20526;-69
2022/04/23 01:02:22;;;;;;;10.57;9.68;;;;;;;;;;5106292;28;20716;-69
2022/04/23 01:04:49;;;;;;;10.32;9.20;;;;;;;;;;5105827;28;20196;-69
2022/04/23 01:07:16;;;;;;;10.48;9.40;;;;;;;;;;5105586;28;20188;-69
2022/04/23 01:09:44;;;;;;;9.50;8.70;;;;;;;;;;5106010;28;20199;-69
2022/04/23 01:12:11;;;;;;;10.70;9.48;;;;;;;;;;5105878;28;20267;-69
2022/04/23 01:14:52;;;;;;;12.00;9.68;;;;;;;;;;5105898;28;20219;-69
2022/04/23 01:17:18;;;;;;;10.85;9.75;;;;;;;;;;5105339;28;20261;-68
2022/04/23 01:19:44;;;;;;;11.38;10.32;;;;;;;;;;5105561;28;20199;-68
2022/04/23 01:22:12;;;;;;;11.30;10.30;;;;;;;;;;5105735;28;20195;-69
2022/04/23 01:24:39;;;;;;;11.77;10.65;;;;;;;;;;5105601;28;20192;-69
2022/04/23 01:27:06;;;;;;;11.45;10.45;;;;;;;;;;5104538;28;20521;-69
2022/04/23 01:29:32;;;;;;;12.60;11.30;;;;;;;;;;5105336;28;20204;-69
2022/04/23 01:31:58;;;;;;;10.93;10.02;;;;;;;;;;5105327;28;20242;-69
2022/04/23 01:34:24;;;;;;;13.77;11.15;;;;;;;;;;5105321;28;20226;-69
2022/04/23 01:36:50;;;;;;;12.18;11.07;;;;;;;;;;5105084;28;20233;-69
2022/04/23 01:39:18;;;;;;;12.70;11.50;;;;;;;;;;5105312;28;20196;-69
2022/04/23 01:41:47;;;;;;;13.43;12.13;;;;;;;;;;5105671;28;20196;-69
2022/04/23 01:44:13;;;;;;;14.63;11.85;;;;;;;;;;5105600;28;20255;-68
2022/04/23 01:46:39;;;;;;;12.98;11.88;;;;;;;;;;5105071;28;20196;-69
2022/04/23 01:49:05;;;;;;;14.02;12.82;;;;;;;;;;5104878;28;20200;-69
2022/04/23 01:51:32;;;;;;;13.38;12.15;;;;;;;;;;5105073;28;20419;-69
2022/04/23 01:53:58;;;;;;;13.77;12.48;;;;;;;;;;5104875;28;20218;-69
2022/04/23 01:56:26;;;;;;;13.45;12.20;;;;;;;;;;5104609;28;20241;-69
2022/04/23 01:58:52;;;;;;;14.80;13.13;;;;;;;;;;5104743;28;20390;-69
2022/04/23 02:01:18;;;;;;;14.32;12.93;;;;;;;;;;5103994;28;20576;-69
2022/04/23 02:03:45;;;;;;;13.07;11.77;;;;;;;;;;5104811;28;20420;-69
2022/04/23 02:06:12;;;;;;;15.00;13.48;;;;;;;;;;5104485;28;20216;-68
2022/04/23 02:08:38;;;;;;;15.18;13.77;;;;;;;;;;5104721;28;20200;-69
2022/04/23 02:11:04;;;;;;;14.45;13.02;;;;;;;;;;5104495;28;20195;-68
2022/04/23 02:13:32;;;;;;;15.55;13.18;;;;;;;;;;5104673;28;20196;-68
2022/04/23 02:15:58;;;;;;;14.23;12.77;;;;;;;;;;5104381;28;20219;-68
2022/04/23 02:18:26;;;;;;;14.98;13.60;;;;;;;;;;5104708;28;20203;-69
2022/04/23 02:20:52;;;;;;;14.65;13.25;;;;;;;;;;5104482;28;20196;-68
2022/04/23 02:23:19;;;;;;;14.07;12.80;;;;;;;;;;5104541;28;20203;-69
2022/04/23 02:25:45;;;;;;;14.05;12.75;;;;;;;;;;5104353;28;20199;-68
2022/04/23 02:28:12;;;;;;;14.75;13.40;;;;;;;;;;5104004;28;20195;-69
2022/04/23 02:30:40;;;;;;;14.52;13.02;;;;;;;;;;5104292;28;20218;-68
2022/04/23 02:33:06;;;;;;;13.90;12.55;;;;;;;;;;5104310;28;20200;-68
2022/04/23 02:35:34;;;;;;;12.88;11.77;;;;;;;;;;5104048;28;20212;-68
2022/04/23 02:38:01;;;;;;;13.95;12.55;;;;;;;;;;5104298;28;20301;-68
2022/04/23 02:40:28;;;;;;;15.18;13.77;;;;;;;;;;5104237;28;20495;-69
2022/04/23 02:42:55;;;;;;;14.90;13.50;;;;;;;;;;5104259;28;20424;-69
2022/04/23 02:45:21;;;;;;;14.73;13.38;;;;;;;;;;5104044;28;20219;-69
2022/04/23 02:47:49;;;;;;;14.13;12.82;;;;;;;;;;5103839;28;20196;-69
2022/04/23 02:50:16;;;;;;;14.45;13.15;;;;;;;;;;5103864;28;20225;-68
2022/04/23 02:52:43;;;;;;;13.60;12.35;;;;;;;;;;5103869;28;20196;-68
2022/04/23 02:55:11;;;;;;;13.65;12.23;;;;;;;;;;5103910;28;20215;-69
2022/04/23 02:57:37;;;;;;;14.13;12.82;;;;;;;;;;5103594;28;20195;-68
2022/04/23 03:00:05;;;;;;;14.13;12.77;;;;;;;;;;5103768;28;20196;-68
2022/04/23 03:02:33;;;;;;;13.88;12.60;;;;;;;;;;5103559;28;20203;-68
2022/04/23 03:05:00;;;;;;;13.73;12.43;;;;;;;;;;5103558;28;20216;-69
2022/04/23 03:07:28;;;;;;;14.25;12.95;;;;;;;;;;5103248;28;20211;-68
2022/04/23 03:09:55;;;;;;;13.52;12.25;;;;;;;;;;5103505;28;20227;-68
2022/04/23 03:12:21;;;;;;;13.63;12.32;;;;;;;;;;5103526;28;20245;-68
2022/04/23 03:14:47;;;;;;;13.77;12.57;;;;;;;;;;5103529;28;20196;-69
2022/04/23 03:17:13;;;;;;;15.20;13.73;;;;;;;;;;5103189;28;20227;-69
2022/04/23 03:19:41;;;;;;;13.48;12.18;;;;;;;;;;5103343;28;20372;-69
2022/04/23 03:22:08;;;;;;;14.55;13.05;;;;;;;;;;5103563;28;20431;-68
2022/04/23 03:24:34;;;;;;;13.65;12.10;;;;;;;;;;5103316;28;20203;-69
2022/04/23 03:27:01;;;;;;;12.30;11.20;;;;;;;;;;5103024;28;20432;-69
2022/04/23 03:29:27;;;;;;;13.70;12.48;;;;;;;;;;5103035;28;20196;-69
2022/04/23 03:31:53;;;;;;;13.73;12.43;;;;;;;;;;5103124;28;20200;-69
2022/04/23 03:34:20;;;;;;;13.50;12.30;;;;;;;;;;5102883;28;20195;-68
2022/04/23 03:36:47;;;;;;;13.35;12.15;;;;;;;;;;5102618;28;20223;-68
2022/04/23 03:39:15;;;;;;;12.98;11.75;;;;;;;;;;5102950;28;20267;-69
2022/04/23 03:41:42;;;;;;;13.38;12.07;;;;;;;;;;5102831;28;20223;-68
2022/04/23 03:44:08;;;;;;;14.48;13.07;;;;;;;;;;5103041;28;20499;-68
2022/04/23 03:46:34;;;;;;;14.23;12.90;;;;;;;;;;5102557;28;20397;-68
2022/04/23 03:49:01;;;;;;;14.07;12.82;;;;;;;;;;5103209;28;20564;-69
2022/04/23 03:51:27;;;;;;;13.40;12.20;;;;;;;;;;5102978;28;20242;-68
2022/04/23 03:53:53;;;;;;;14.13;12.82;;;;;;;;;;5102902;28;20241;-68
2022/04/23 03:56:21;;;;;;;14.52;13.13;;;;;;;;;;5102551;28;20224;-68
2022/04/23 03:58:47;;;;;;;14.82;13.43;;;;;;;;;;5102770;28;20415;-69
2022/04/23 04:01:13;;;;;;;14.85;13.45;;;;;;;;;;5102611;28;20389;-69
2022/04/23 04:03:39;;;;;;;14.80;13.40;;;;;;;;;;5102498;28;20436;-69
2022/04/23 04:06:06;;;;;;;15.15;13.65;;;;;;;;;;5102526;28;20539;-68
2022/04/23 04:08:32;;;;;;;15.43;13.98;;;;;;;;;;5102683;28;20413;-68
2022/04/23 04:10:58;;;;;;;14.77;13.30;;;;;;;;;;5102685;28;20561;-69
2022/04/23 04:13:26;;;;;;;14.85;13.45;;;;;;;;;;5102554;28;20257;-68
2022/04/23 04:15:52;;;;;;;14.75;13.35;;;;;;;;;;5102305;28;20223;-69
2022/04/23 04:18:19;;;;;;;14.65;13.25;;;;;;;;;;5102294;28;20199;-69
2022/04/23 04:20:48;;;;;;;14.55;13.05;;;;;;;;;;5102678;28;20506;-69
2022/04/23 04:23:15;;;;;;;14.93;13.63;;;;;;;;;;5102593;28;20202;-69
2022/04/23 04:25:41;;;;;;;14.30;12.90;;;;;;;;;;5108822;28;20199;-69
2022/04/23 04:28:07;;;;;;;14.50;13.20;;;;;;;;;;5108939;28;20498;-69
2022/04/23 04:33:16;;;;;;;13.23;12.02;;;;;;;;;;5108942;28;20223;-69
2022/04/23 04:35:42;;;;;;;13.80;12.50;;;;;;;;;;5109427;28;20223;-69
2022/04/23 04:38:08;;;;;;;14.07;12.77;;;;;;;;;;5109029;28;20199;-69
2022/04/23 04:40:35;;;;;;;13.63;12.25;;;;;;;;;;5109077;28;20195;-69
2022/04/23 04:43:01;;;;;;;14.25;12.85;;;;;;;;;;5109281;28;20215;-69
2022/04/23 04:45:28;;;;;;;13.98;12.68;;;;;;;;;;5108901;28;20242;-68
2022/04/23 04:47:55;;;;;;;13.65;12.35;;;;;;;;;;5108816;28;20249;-69
2022/04/23 04:50:21;;;;;;;14.07;12.77;;;;;;;;;;5109156;28;20199;-69
2022/04/23 04:52:48;;;;;;;14.13;12.82;;;;;;;;;;5109030;28;20241;-69
2022/04/23 04:55:14;;;;;;;14.02;12.60;;;;;;;;;;5108907;28;20249;-69
2022/04/23 04:57:41;;;;;;;13.52;12.30;;;;;;;;;;5108447;28;20503;-69
2022/04/23 05:00:08;;;;;;;12.80;11.52;;;;;;;;;;5108724;28;20199;-69
2022/04/23 05:02:34;;;;;;;13.38;12.10;;;;;;;;;;5108732;28;20437;-69
2022/04/23 05:05:01;;;;;;;13.02;11.82;;;;;;;;;;5109015;28;20340;-69
2022/04/23 05:07:28;;;;;;;13.50;12.20;;;;;;;;;;5108641;28;20188;-69
2022/04/23 05:09:54;;;;;;;13.80;12.50;;;;;;;;;;5108711;28;20195;-69
2022/04/23 05:12:20;;;;;;;13.32;12.13;;;;;;;;;;5108537;28;20195;-69
2022/04/23 05:14:46;;;;;;;12.70;11.50;;;;;;;;;;5108912;28;20257;-69
2022/04/23 05:17:13;;;;;;;13.10;11.90;;;;;;;;;;5107295;28;20531;-69
2022/04/23 05:19:39;;;;;;;13.07;11.82;;;;;;;;;;5108729;28;20503;-69
2022/04/23 05:22:07;;;;;;;12.07;10.98;;;;;;;;;;5108620;28;20196;-69
2022/04/23 05:24:33;;;;;;;12.32;11.27;;;;;;;;;;5108516;28;20196;-69
2022/04/23 05:26:59;;;;;;;12.18;10.98;;;;;;;;;;5108288;28;20196;-69
2022/04/23 05:29:25;;;;;;;11.73;10.63;;;;;;;;;;5108762;28;20241;-69
2022/04/23 05:31:51;;;;;;;12.32;11.23;;;;;;;;;;5108652;28;20233;-69
2022/04/23 05:34:18;;;;;;;12.60;11.50;;;;;;;;;;5108673;28;20200;-69
2022/04/23 05:36:44;;;;;;;13.13;11.40;;;;;;;;;;5104275;28;20216;-69
2022/04/23 05:39:12;;;;;;;11.88;10.88;;;;;;;;;;5105255;28;20200;-69
2022/04/23 05:41:38;;;;;;;11.98;10.95;;;;;;;;;;5105148;28;20199;-69
2022/04/23 05:44:05;;;;;;;13.77;12.48;;;;;;;;;;5105311;28;20421;-69
2022/04/23 05:46:31;;;;;;;12.85;11.57;;;;;;;;;;5105032;28;20238;-69
2022/04/23 05:48:57;;;;;;;12.77;11.55;;;;;;;;;;5105256;28;20196;-69
2022/04/23 05:51:24;;;;;;;13.57;12.23;;;;;;;;;;5105193;28;20348;-69
2022/04/23 05:53:50;;;;;;;11.60;10.50;;;;;;;;;;5104862;28;20230;-68
2022/04/23 05:56:18;;;;;;;12.48;11.27;;;;;;;;;;5104751;28;20265;-69
2022/04/23 05:58:44;;;;;;;13.65;11.68;;;;;;;;;;5105029;28;20196;-69
2022/04/23 06:01:10;;;;;;;11.25;10.25;;;;;;;;;;5104892;28;20204;-69
2022/04/23 06:03:36;;;;;;;14.05;12.63;;;;;;;;;;5104920;28;20233;-69
2022/04/23 06:06:03;;;;;;;10.95;9.95;;;;;;;;;;5104503;28;20445;-69
2022/04/23 06:08:29;;;;;;;16.42;13.35;;;;;;;;;;5104629;28;20241;-69
2022/04/23 06:10:55;;;;;;;11.98;10.77;;;;;;;;;;5104870;28;20210;-69
2022/04/23 06:13:23;;;;;;;10.32;9.48;;;;;;;;;;5104896;28;20437;-69
2022/04/23 06:15:49;;;;;;;11.23;10.32;;;;;;;;;;5104762;28;20425;-69
2022/04/23 06:18:15;;;;;;;9.48;8.77;;;;;;;;;;5104507;28;20257;-68
2022/04/23 06:20:41;;;;;;;10.77;9.90;;;;;;;;;;5104478;28;20204;-69
2022/04/23 06:23:08;;;;;;;9.38;8.68;;;;;;;;;;5104301;28;20371;-69
2022/04/23 06:25:34;;;;;;;9.80;9.00;;;;;;;;;;5104523;28;20513;-69
2022/04/23 06:28:00;;;;;;;9.60;8.88;;;;;;;;;;5104309;28;20214;-69
2022/04/23 06:30:28;;;;;;;9.88;8.98;;;;;;;;;;5104307;28;20192;-69
2022/04/23 06:32:54;;;;;;;10.07;9.27;;;;;;;;;;5104402;28;20234;-69
2022/04/23 06:35:20;;;;;;;10.13;9.35;;;;;;;;;;5104299;28;20242;-69
2022/04/23 06:37:47;;;;;;;9.85;9.05;;;;;;;;;;5103723;28;20219;-69
2022/04/23 06:40:13;;;;;;;10.13;9.32;;;;;;;;;;5104126;28;20199;-69
2022/04/23 06:42:40;;;;;;;10.00;9.20;;;;;;;;;;5104135;28;20199;-69
2022/04/23 06:45:06;;;;;;;9.65;8.85;;;;;;;;;;5104133;28;20410;-69
2022/04/23 06:47:34;;;;;;;9.95;9.13;;;;;;;;;;5103432;28;20421;-69
2022/04/23 06:50:00;;;;;;;10.68;9.50;;;;;;;;;;5103994;28;20274;-69
2022/04/23 06:52:27;;;;;;;10.15;9.25;;;;;;;;;;5103845;28;20241;-69
2022/04/23 06:54:54;;;;;;;10.93;10.02;;;;;;;;;;5103767;28;20211;-69
2022/04/23 06:57:22;;;;;;;10.57;9.48;;;;;;;;;;5103490;28;20423;-69
2022/04/23 06:59:48;;;;;;;10.18;9.38;;;;;;;;;;5103778;28;20196;-69
2022/04/23 07:02:15;;;;;;;10.07;9.27;;;;;;;;;;5103591;28;20249;-69
2022/04/23 07:04:43;;;;;;;10.20;9.20;;;;;;;;;;5103479;28;20235;-69
2022/04/23 07:07:10;;;;;;;8.98;8.27;;;;;;;;;;5103302;28;20430;-69
2022/04/23 07:09:36;;;;;;;11.05;9.93;;;;;;;;;;5103615;28;20526;-69
2022/04/23 07:12:02;;;;;;;9.48;8.77;;;;;;;;;;5103534;28;20421;-69
2022/04/23 07:14:28;;;;;;;10.25;9.40;;;;;;;;;;5103573;28;20196;-69
2022/04/23 07:16:55;;;;;;;10.30;9.30;;;;;;;;;;5103015;28;20445;-69
2022/04/23 07:19:21;;;;;;;10.55;9.65;;;;;;;;;;5103183;28;20200;-69
2022/04/23 07:21:49;;;;;;;10.88;9.73;;;;;;;;;;5103589;28;20195;-69
2022/04/23 07:24:15;;;;;;;11.57;10.48;;;;;;;;;;5103370;28;20231;-69
2022/04/23 07:26:42;;;;;;;10.38;9.32;;;;;;;;;;5102997;28;20192;-69
2022/04/23 07:29:10;;;;;;;9.93;9.13;;;;;;;;;;5102911;28;20241;-69
2022/04/23 07:31:37;;;;;;;9.70;8.85;;;;;;;;;;5103345;28;20233;-69
2022/04/23 07:39:33;;;;;;;9.50;8.70;;;;;;;;;;5102571;28;20252;-69
2022/04/23 07:41:59;;;;;;;10.27;9.38;;;;;;;;;;5102416;28;20195;-69
2022/04/23 07:44:25;;;;;;;10.38;9.48;;;;;;;;;;5102221;28;20237;-69
2022/04/23 07:46:52;;;;;;;10.23;9.40;;;;;;;;;;5102339;28;20408;-69
2022/04/23 07:49:18;;;;;;;10.27;9.38;;;;;;;;;;5102302;28;20199;-69
2022/04/23 07:51:47;;;;;;;9.60;8.65;;;;;;;;;;5102336;28;20241;-68
2022/04/23 07:54:14;;;;;;;10.48;9.57;;;;;;;;;;5102458;28;20200;-69
2022/04/23 07:56:41;;;;;;;10.68;9.57;;;;;;;;;;5101835;28;20515;-69
2022/04/23 07:59:08;;;;;;;9.55;8.75;;;;;;;;;;5101489;28;20200;-62
2022/04/23 08:01:34;;;;;;;9.50;8.50;;;;;;;;;;5102471;28;20203;-62
2022/04/23 08:04:02;;;;;;;11.77;10.57;;;;;;;;;;5102362;28;20241;-62
2022/04/23 08:06:29;;;;;;;12.15;11.05;;;;;;;;;;5101855;28;20419;-62
2022/04/23 08:08:55;;;;;;;11.80;10.25;;;;;;;;;;5101900;28;20191;-62
2022/04/23 08:11:22;;;;;;;10.95;9.95;;;;;;;;;;5101718;28;20511;-62
2022/04/23 08:13:49;;;;;;;14.25;11.23;;;;;;;;;;5101629;28;20376;-62
2022/04/23 08:16:16;;;;;;;11.02;9.93;;;;;;;;;;5101807;28;20199;-62
2022/04/23 08:18:42;;;;;;;11.85;10.63;;;;;;;;;;5102210;28;20259;-62
2022/04/23 08:21:08;;;;;;;11.68;10.48;;;;;;;;;;5102002;28;20195;-62
2022/04/23 08:23:34;;;;;;;12.27;10.85;;;;;;;;;;5101827;28;20209;-62
2022/04/23 08:26:01;;;;;;;12.32;11.13;;;;;;;;;;5101957;28;20210;-62
2022/04/23 08:31:13;;;;;;;11.43;10.20;;;;;;;;;;5101957;28;20553;-62
2022/04/23 08:36:23;;;;;;;13.65;11.15;;;;;;;;;;5101607;28;20199;-62
2022/04/23 08:38:49;;;;;;;11.45;10.25;;;;;;;;;;5101858;28;20265;-62
2022/04/23 08:41:15;;;;;;;11.55;10.40;;;;;;;;;;5101579;28;20196;-62
2022/04/23 08:43:43;;;;;;;11.90;10.77;;;;;;;;;;5101769;28;20621;-62
2022/04/23 08:46:10;;;;;;;12.63;11.27;;;;;;;;;;5101553;28;20525;-62
2022/04/23 08:48:38;;;;;;;12.60;11.13;;;;;;;;;;5087080;28;20408;-62
2022/04/23 08:51:05;;;;;;;12.65;11.45;;;;;;;;;;5095009;28;20252;-62
2022/04/23 08:53:33;;;;;;;12.95;11.55;;;;;;;;;;5095643;28;20293;-62
2022/04/23 08:55:59;;;;;;;11.40;10.30;;;;;;;;;;5095597;28;20208;-62
2022/04/23 08:58:25;;;;;;;12.38;11.15;;;;;;;;;;5095484;28;20224;-62
2022/04/23 09:00:53;;;;;;;11.48;10.38;;;;;;;;;;5095605;28;20216;-63
2022/04/23 09:03:19;;;;;;;11.15;10.07;;;;;;;;;;5096530;28;20402;-62
2022/04/23 09:05:50;;;;;;;10.85;9.75;;;;;;;;;;5096006;28;20434;-61
2022/04/23 09:08:17;;;;;;;12.55;10.77;;;;;;;;;;5095764;28;20226;-62
2022/04/23 09:10:44;;;;;;;11.40;10.18;;;;;;;;;;5097351;28;20253;-62
2022/04/23 09:13:10;;;;;;;11.77;10.57;;;;;;;;;;5099498;28;20231;-62
2022/04/23 09:24:06;;;;;;;9.63;8.77;;;;;;;;;;5099282;28;20289;-62
2022/04/23 09:26:33;;;;;;;9.93;8.93;;;;;;;;;;5098780;28;20245;-62
2022/04/23 09:29:00;;;;;;;10.35;9.35;;;;;;;;;;5098778;28;20474;-62
2022/04/23 09:31:27;;;;;;;9.75;8.82;;;;;;;;;;5098875;28;20230;-62
2022/04/23 09:33:54;;;;;;;10.50;9.38;;;;;;;;;;5098961;28;20235;-62
2022/04/23 09:36:21;;;;;;;8.88;8.07;;;;;;;;;;5098497;28;20278;-62
2022/04/23 09:38:59;;;;;;;10.90;7.90;;;;;;;;;;5098735;28;20288;-60
2022/04/23 09:41:31;;;;;;;8.00;7.20;;;;;;;;;;5099093;28;20252;-59
2022/04/23 09:44:05;;;;;;;6.90;6.32;;;;;;;;;;5098898;28;20257;-60
2022/04/23 09:46:42;;;;;;;7.80;7.13;;;;;;;;;;5098507;28;20235;-60
2022/04/23 09:49:09;;;;;;;8.00;7.20;;;;;;;;;;5098469;28;20208;-62
2022/04/23 09:51:36;;;;;;;8.55;7.47;;;;;;;;;;5098908;28;20437;-62
2022/04/23 09:54:02;;;;;;;8.23;7.53;;;;;;;;;;5099043;28;20542;-61
2022/04/23 09:56:29;;;;;;;7.40;6.70;;;;;;;;;;5098692;28;20207;-61
2022/04/23 09:58:55;;;;;;;8.43;7.72;;;;;;;;;;5098212;28;20422;-60
2022/04/23 10:01:22;;;;;;;8.13;7.40;;;;;;;;;;5098525;28;20252;-59
2022/04/23 10:03:50;;;;;;;8.75;7.85;;;;;;;;;;5098585;28;20207;-60
2022/04/23 10:06:18;;;;;;;7.50;6.90;;;;;;;;;;5098246;28;20562;-61
2022/04/23 10:08:48;;;;;;;9.02;8.13;;;;;;;;;;5098225;28;20450;-60
2022/04/23 10:11:17;;;;;;;9.10;8.27;;;;;;;;;;5098306;28;20214;-60
2022/04/23 10:13:45;;;;;;;10.90;8.15;;;;;;;;;;5098451;28;20207;-60
2022/04/23 10:16:12;;;;;;;8.45;7.70;;;;;;;;;;5098019;28;20530;-60
2022/04/23 10:18:39;;;;;;;8.95;8.18;;;;;;;;;;5098181;28;20215;-60
2022/04/23 10:21:08;;;;;;;9.95;8.93;;;;;;;;;;5098277;28;20234;-59
2022/04/23 10:23:44;;;;;;;9.23;8.32;;;;;;;;;;5098031;28;20207;-61
2022/04/23 10:26:22;;;;;;;8.85;8.05;;;;;;;;;;5097919;28;20214;-62
2022/04/23 10:28:49;;;;;;;9.75;8.68;;;;;;;;;;5097259;28;20275;-61
2022/04/23 10:31:16;;;;;;;12.60;9.63;;;;;;;;;;5097814;28;20511;-62
2022/04/23 10:33:47;;;;;;;10.43;9.32;;;;;;;;;;5098025;28;20576;-61
2022/04/23 10:36:14;;;;;;;10.88;8.82;;;;;;;;;;5097588;28;20218;-60
2022/04/23 10:38:44;;;;;;;9.55;8.73;;;;;;;;;;5097651;28;20231;-62
2022/04/23 10:41:12;;;;;;;12.38;9.60;;;;;;;;;;5097803;28;20448;-61
2022/04/23 10:43:47;;;;;;;9.70;8.77;;;;;;;;;;5097863;28;20207;-61
2022/04/23 10:46:43;;;;;;;10.50;8.90;;;;;;;;;;5097736;28;20573;-62
2022/04/23 10:49:13;;;;;;;10.75;9.27;;;;;;;;;;5097192;28;20238;-62
2022/04/23 10:51:49;;;;;;;10.45;9.07;;;;;;;;;;5097406;28;20238;-61
2022/04/23 10:54:19;;;;;;;9.40;8.50;;;;;;;;;;5093249;28;20234;-63
2022/04/23 10:56:49;;;;;;;10.93;8.48;;;;;;;;;;5097087;28;20290;-61
2022/04/23 10:59:30;;;;;;;9.30;8.40;;;;;;;;;;5096868;28;20314;-61
2022/04/23 11:02:02;;;;;;;8.07;7.40;;;;;;;;;;5097316;28;20280;-62
2022/04/23 11:04:28;;;;;;;9.38;8.45;;;;;;;;;;5097266;28;20219;-61
2022/04/23 11:12:52;;;;;;;8.25;7.53;;;;;;;;;;5096953;28;20206;-61
2022/04/23 11:15:19;;;;;;;8.38;7.50;;;;;;;;;;5096739;28;20207;-61
2022/04/23 11:17:46;;;;;;;9.05;8.15;;;;;;;;;;5096348;28;20219;-61
2022/04/23 11:20:14;;;;;;;8.60;7.78;;;;;;;;;;5096308;28;20207;-61
2022/04/23 11:22:40;;;;;;;8.98;8.13;;;;;;;;;;5096651;28;20207;-61
2022/04/23 11:25:09;;;;;;;8.50;7.70;;;;;;;;;;5096554;28;20203;-61
2022/04/23 11:27:37;;;;;;;8.68;7.80;;;;;;;;;;5096180;28;20513;-61
2022/04/23 11:30:03;;;;;;;7.63;7.03;;;;;;;;;;5096392;28;20207;-61
2022/04/23 11:32:30;;;;;;;7.50;6.90;;;;;;;;;;5096657;28;20208;-61
2022/04/23 11:34:57;;;;;;;7.45;6.82;;;;;;;;;;5095906;28;20211;-61
2022/04/23 11:37:30;;;;;;;7.72;7.03;;;;;;;;;;5096751;28;20216;-61
2022/04/23 11:40:04;;;;;;;8.23;7.45;;;;;;;;;;5096438;28;20234;-60
2022/04/23 11:42:37;;;;;;;8.43;7.63;;;;;;;;;;5096536;28;20265;-61
2022/04/23 11:45:03;;;;;;;8.05;7.35;;;;;;;;;;5096616;28;20281;-61
2022/04/23 11:47:30;;;;;;;8.05;6.63;;;;;;;;;;5096278;28;20257;-60
2022/04/23 11:50:07;;;;;;;10.63;7.57;;;;;;;;;;5096588;28;20212;-60
2022/04/23 11:52:33;;;;;;;7.38;6.78;;;;;;;;;;5096656;28;20211;-60
2022/04/23 11:55:00;;;;;;;7.78;7.10;;;;;;;;;;5096556;28;20553;-60
2022/04/23 11:57:26;;;;;;;8.00;7.30;;;;;;;;;;5096393;28;20235;-60
2022/04/23 11:59:59;;;;;;;7.63;6.93;;;;;;;;;;5096656;28;20207;-60
2022/04/23 12:02:26;;;;;;;7.90;7.20;;;;;;;;;;5096924;28;20306;-60
2022/04/23 12:04:52;;;;;;;7.90;7.07;;;;;;;;;;5096742;28;20249;-60
2022/04/23 12:07:19;;;;;;;7.60;6.85;;;;;;;;;;5096753;28;20523;-60
2022/04/23 12:09:46;;;;;;;8.18;6.90;;;;;;;;;;5096519;28;20196;-60
2022/04/23 12:12:15;;;;;;;8.35;7.65;;;;;;;;;;5096461;28;20517;-60
2022/04/23 12:14:45;;;;;;;7.88;7.10;;;;;;;;;;5096175;28;20208;-60
2022/04/23 12:17:20;;;;;;;7.18;6.38;;;;;;;;;;5095962;28;20507;-60
2022/04/23 12:19:47;;;;;;;8.55;7.22;;;;;;;;;;5095935;28;20251;-60
2022/04/23 12:22:21;;;;;;;6.85;6.35;;;;;;;;;;5096353;28;20537;-60
2022/04/23 12:24:48;;;;;;;7.03;6.32;;;;;;;;;;5096243;28;20541;-60
2022/04/23 12:27:14;;;;;;;7.63;6.93;;;;;;;;;;5096151;28;20768;-60
2022/04/23 12:40:47;;;;;;;7.45;6.75;;;;;;;;;;5095666;28;20214;-60
2022/04/23 12:43:21;;;;;;;7.15;5.70;;;;;;;;;;5096374;28;20406;-60
2022/04/23 12:45:47;;;;;;;7.30;6.55;;;;;;;;;;5098152;28;20486;-60
2022/04/23 12:48:15;;;;;;;6.15;5.65;;;;;;;;;;5100070;28;20465;-60
2022/04/23 12:50:41;;;;;;;6.18;5.78;;;;;;;;;;5100358;28;20211;-60
2022/04/23 12:53:07;;;;;;;6.72;5.90;;;;;;;;;;5100367;28;20335;-60
2022/04/23 12:55:37;;;;;;;6.70;6.20;;;;;;;;;;5100129;28;20212;-60
2022/04/23 12:58:07;;;;;;;7.57;6.53;;;;;;;;;;5099592;28;20227;-60
2022/04/23 13:00:34;;;;;;;8.63;5.50;;;;;;;;;;5099830;28;20226;-60
2022/04/23 13:03:09;;;;;;;6.68;6.18;;;;;;;;;;5099808;28;20512;-60
2022/04/23 13:05:37;;;;;;;7.13;6.53;;;;;;;;;;5099745;28;20410;-59
2022/04/23 13:10:52;;;;;;;6.47;5.93;;;;;;;;;;5088444;28;20275;-60
2022/04/23 13:13:18;;;;;;;8.32;6.20;;;;;;;;;;5099393;28;20394;-60
2022/04/23 13:15:45;;;;;;;8.23;6.82;;;;;;;;;;5099359;28;20253;-60
2022/04/23 13:18:11;;;;;;;9.30;6.70;;;;;;;;;;5098619;28;20232;-60
2022/04/23 13:20:39;;;;;;;7.22;6.68;;;;;;;;;;5099387;28;20199;-60
2022/04/23 13:23:05;;;;;;;6.97;6.47;;;;;;;;;;5099818;28;20204;-60
2022/04/23 13:25:31;;;;;;;7.63;6.85;;;;;;;;;;5099609;28;20216;-60
2022/04/23 13:27:58;;;;;;;8.20;7.30;;;;;;;;;;5098823;28;20428;-60
2022/04/23 13:30:24;;;;;;;6.82;6.32;;;;;;;;;;5098863;28;20208;-60
2022/04/23 13:32:50;;;;;;;12.32;7.20;;;;;;;;;;5099139;28;20519;-58
2022/04/23 13:35:18;;;;;;;7.10;6.40;;;;;;;;;;5099226;28;20533;-60
2022/04/23 13:37:45;;;;;;;8.00;7.20;;;;;;;;;;5098550;28;20514;-60
2022/04/23 13:40:13;;;;;;;7.43;6.72;;;;;;;;;;5098481;28;20551;-60
2022/04/23 13:42:41;;;;;;;6.72;5.95;;;;;;;;;;5099003;28;20393;-61
2022/04/23 13:45:08;;;;;;;7.70;7.03;;;;;;;;;;5099106;28;20554;-62
2022/04/23 13:47:34;;;;;;;7.00;6.30;;;;;;;;;;5098715;28;20212;-61
2022/04/23 13:50:00;;;;;;;7.30;6.60;;;;;;;;;;5099001;28;20204;-62
2022/04/23 13:52:27;;;;;;;7.70;7.00;;;;;;;;;;5099475;28;20208;-61
2022/04/23 13:54:54;;;;;;;8.75;7.80;;;;;;;;;;5103259;28;20277;-61
2022/04/23 13:57:23;;;;;;;7.70;7.00;;;;;;;;;;5103059;28;20386;-62
2022/04/23 13:59:50;;;;;;;7.70;7.10;;;;;;;;;;5104538;28;20226;-61
2022/04/23 14:10:29;;;;;;;7.38;6.68;;;;;;;;;;5104332;28;20401;-62
2022/04/23 14:12:55;;;;;;;8.25;6.82;;;;;;;;;;5104286;28;20200;-62
2022/04/23 14:15:21;;;;;;;7.28;6.72;;;;;;;;;;5104118;28;20196;-61
2022/04/23 14:17:48;;;;;;;7.95;7.15;;;;;;;;;;5103757;28;20233;-62
2022/04/23 14:20:14;;;;;;;7.75;7.15;;;;;;;;;;5103826;28;20425;-62
2022/04/23 14:22:40;;;;;;;7.82;7.03;;;;;;;;;;5104113;28;20392;-62
2022/04/23 14:25:07;;;;;;;7.35;6.80;;;;;;;;;;5104131;28;20195;-62
2022/04/23 14:27:35;;;;;;;8.45;7.65;;;;;;;;;;5103775;28;20195;-61
2022/04/23 14:30:01;;;;;;;8.73;7.35;;;;;;;;;;5103817;28;20450;-62
2022/04/23 14:32:27;;;;;;;8.55;7.75;;;;;;;;;;5104270;28;20195;-62
2022/04/23 14:34:54;;;;;;;8.45;7.75;;;;;;;;;;5103786;28;20195;-62
2022/04/23 14:37:20;;;;;;;8.48;7.65;;;;;;;;;;5103768;28;20199;-62
2022/04/23 14:39:46;;;;;;;9.30;7.70;;;;;;;;;;5103895;28;20253;-62
2022/04/23 14:42:14;;;;;;;7.72;7.10;;;;;;;;;;5103813;28;20196;-62
2022/04/23 14:44:41;;;;;;;8.90;8.10;;;;;;;;;;5103709;28;20289;-62
2022/04/23 14:47:07;;;;;;;8.38;7.63;;;;;;;;;;5103524;28;20483;-60
2022/04/23 14:49:34;;;;;;;8.52;7.65;;;;;;;;;;5103638;28;20234;-62
2022/04/23 14:54:45;;;;;;;9.38;8.15;;;;;;;;;;5103351;28;20202;-62
2022/04/23 14:57:11;;;;;;;9.52;8.30;;;;;;;;;;5103211;28;20203;-63
2022/04/23 14:59:38;;;;;;;8.68;7.82;;;;;;;;;;5103098;28;20273;-63
2022/04/23 15:02:06;;;;;;;11.50;9.32;;;;;;;;;;5103172;28;20203;-63
2022/04/23 15:04:33;;;;;;;14.80;9.60;;;;;;;;;;5103106;28;20511;-63
2022/04/23 15:06:59;;;;;;;11.23;10.13;;;;;;;;;;5102693;28;20258;-63
2022/04/23 15:09:25;;;;;;;11.65;9.63;;;;;;;;;;5102928;28;20557;-63
2022/04/23 15:11:51;;;;;;;13.75;10.48;;;;;;;;;;5103073;28;20280;-62
2022/04/23 15:14:18;;;;;;;12.25;10.23;;;;;;;;;;5102881;28;20195;-62
2022/04/23 15:16:45;;;;;;;10.57;9.57;;;;;;;;;;5102695;28;20241;-63
2022/04/23 15:19:12;;;;;;;10.40;9.13;;;;;;;;;;5102918;28;20228;-63
2022/04/23 15:21:38;;;;;;;11.05;9.98;;;;;;;;;;5102752;28;20218;-63